createdAt,value
2023-01-23T06:00:49.987Z,9.63
2023-01-23T06:03:35.658Z,10.85
2023-01-23T06:06:22.561Z,10.95
2023-01-23T06:08:49.846Z,11.80
2023-01-23T06:11:16.562Z,12.35
2023-01-23T06:13:43.866Z,12.43
2023-01-23T06:16:11.162Z,11.32
2023-01-23T06:18:38.776Z,11.93
2023-01-23T06:21:06.154Z,10.60
2023-01-23T06:23:34.776Z,11.25
2023-01-23T06:26:02.834Z,11.50
2023-01-23T06:31:02.331Z,10.25
2023-01-23T06:33:49.929Z,10.32
2023-01-23T06:36:17.538Z,11.15
2023-01-23T06:38:44.862Z,11.68
2023-01-23T06:41:12.945Z,9.65
2023-01-23T06:43:46.717Z,11.52
2023-01-23T06:46:19.800Z,12.27
2023-01-23T06:48:47.040Z,12.95
2023-01-23T06:51:13.723Z,12.38
2023-01-23T06:53:43.965Z,13.15
2023-01-23T06:56:12.104Z,11.27
2023-01-23T06:58:39.684Z,11.07
2023-01-23T07:01:13.059Z,11.70
2023-01-23T07:04:13.053Z,10.18
2023-01-23T07:06:41.083Z,11.68
2023-01-23T07:09:09.339Z,11.20
2023-01-23T07:11:37.306Z,12.27
2023-01-23T07:14:06.120Z,11.00
2023-01-23T07:16:35.872Z,11.73
2023-01-23T07:19:04.366Z,12.20
2023-01-23T07:21:32.919Z,12.05
2023-01-23T07:24:00.252Z,13.18
2023-01-23T07:26:26.826Z,12.43
2023-01-23T07:28:54.268Z,12.23
2023-01-23T07:31:20.962Z,11.52
2023-01-23T07:33:48.557Z,11.82
2023-01-23T07:36:15.305Z,13.98
2023-01-23T07:38:42.574Z,12.27
2023-01-23T07:41:09.171Z,12.93
2023-01-23T07:43:36.467Z,14.18
2023-01-23T07:46:03.485Z,12.98
2023-01-23T07:48:30.501Z,13.60
2023-01-23T07:50:57.164Z,13.45
2023-01-23T07:53:24.359Z,13.30
2023-01-23T07:55:50.967Z,14.85
2023-01-23T07:58:18.215Z,14.05
2023-01-23T08:00:45.785Z,13.85
2023-01-23T08:03:12.828Z,13.13
2023-01-23T08:05:39.609Z,14.48
2023-01-23T08:08:13.591Z,13.15
2023-01-23T08:10:41.256Z,12.95
2023-01-23T08:13:08.523Z,11.55
2023-01-23T08:15:37.171Z,11.40
2023-01-23T08:18:04.525Z,12.68
2023-01-23T08:20:31.117Z,12.20
2023-01-23T08:22:59.319Z,12.85
2023-01-23T08:25:26.021Z,11.60
2023-01-23T08:27:53.278Z,11.52
2023-01-23T08:30:20.250Z,10.93
2023-01-23T08:32:47.697Z,12.88
2023-01-23T08:35:14.455Z,12.48
2023-01-23T08:37:42.527Z,11.05
2023-01-23T08:40:10.004Z,11.05
2023-01-23T08:42:38.297Z,10.40
2023-01-23T08:45:05.227Z,10.10
2023-01-23T08:47:36.917Z,11.43
2023-01-23T08:50:05.573Z,13.55
2023-01-23T08:52:34.872Z,12.65
2023-01-23T08:55:01.498Z,10.55
2023-01-23T08:57:28.484Z,11.65
2023-01-23T08:59:55.085Z,12.05
2023-01-23T09:02:22.421Z,12.27
2023-01-23T09:04:50.144Z,12.48
2023-01-23T09:07:17.370Z,11.73
2023-01-23T09:09:44.021Z,12.93
2023-01-23T09:12:11.271Z,12.52
2023-01-23T09:14:37.894Z,12.43
2023-01-23T09:17:05.728Z,12.95
2023-01-23T09:19:32.905Z,11.23
2023-01-23T09:22:00.168Z,13.27
2023-01-23T09:24:26.732Z,12.57
2023-01-23T09:26:53.934Z,13.60
2023-01-23T09:29:20.527Z,12.82
2023-01-23T09:31:47.802Z,12.82
2023-01-23T09:34:16.959Z,13.23
2023-01-23T09:39:12.276Z,12.48
2023-01-23T09:41:40.256Z,13.88
2023-01-23T09:44:20.305Z,14.43
2023-01-23T09:46:55.271Z,13.13
2023-01-23T09:49:46.498Z,13.32
2023-01-23T09:52:18.756Z,12.18
2023-01-23T09:54:53.128Z,12.60
2023-01-23T09:57:35.841Z,12.32
2023-01-23T10:00:25.286Z,12.93
2023-01-23T10:02:56.774Z,12.93
2023-01-23T10:05:36.796Z,12.80
2023-01-23T10:08:19.309Z,13.63
2023-01-23T10:11:27.084Z,12.82
2023-01-23T10:14:20.783Z,11.55
2023-01-23T10:17:07.541Z,11.80
2023-01-23T10:19:47.007Z,13.13
2023-01-23T10:24:56.312Z,11.75
2023-01-23T10:27:35.976Z,13.48
2023-01-23T10:30:28.009Z,13.73
2023-01-23T10:32:59.401Z,13.63
2023-01-23T10:35:53.754Z,14.43
2023-01-23T10:38:27.771Z,12.68
2023-01-23T10:41:13.664Z,12.95
2023-01-23T10:43:51.699Z,12.68
2023-01-23T10:46:23.830Z,12.05
2023-01-23T10:48:51.994Z,13.93
2023-01-23T10:51:46.334Z,13.45
2023-01-23T10:54:30.380Z,13.90
2023-01-23T10:57:00.178Z,13.68
2023-01-23T10:59:32.489Z,12.43
2023-01-23T11:02:21.829Z,15.07
2023-01-23T11:04:51.872Z,13.38
2023-01-23T11:07:23.678Z,13.10
2023-01-23T11:10:07.224Z,14.27
2023-01-23T11:12:46.247Z,12.38
2023-01-23T11:15:32.219Z,15.00
2023-01-23T11:18:01.212Z,13.52
2023-01-23T11:20:27.961Z,13.63
2023-01-23T11:23:17.264Z,14.43
2023-01-23T11:25:54.919Z,13.25
2023-01-23T11:28:47.370Z,12.95
2023-01-23T11:31:21.620Z,13.15
2023-01-23T11:33:57.174Z,12.50
2023-01-23T11:36:54.861Z,12.55
2023-01-23T11:39:36.082Z,14.25
2023-01-23T11:42:03.399Z,12.20
2023-01-23T11:44:38.139Z,13.63
2023-01-23T11:47:30.611Z,13.52
2023-01-23T11:50:05.374Z,13.82
2023-01-23T11:52:38.435Z,15.45
2023-01-23T11:55:14.062Z,14.57
2023-01-23T11:58:02.912Z,15.50
2023-01-23T12:01:09.023Z,14.57
2023-01-23T12:04:20.413Z,13.55
2023-01-23T12:06:50.136Z,14.75
2023-01-23T12:12:17.146Z,12.82
2023-01-23T12:14:43.724Z,13.43
2023-01-23T12:17:27.927Z,14.10
2023-01-23T12:20:22.814Z,13.85
2023-01-23T12:23:02.130Z,15.02
2023-01-23T12:25:37.759Z,13.57
2023-01-23T12:28:25.201Z,14.68
2023-01-23T12:31:18.286Z,15.00
2023-01-23T12:33:47.697Z,13.75
2023-01-23T12:39:35.969Z,13.80
2023-01-23T12:42:08.963Z,15.63
2023-01-23T12:44:40.927Z,16.40
2023-01-23T12:47:13.274Z,15.07
2023-01-23T12:49:54.051Z,19.05
2023-01-23T12:52:33.275Z,18.92
2023-01-23T12:55:26.315Z,15.27
2023-01-23T12:58:08.379Z,14.35
2023-01-23T13:01:12.906Z,14.68
2023-01-23T13:03:47.192Z,15.90
2023-01-23T13:06:19.942Z,14.40
2023-01-23T13:09:02.764Z,15.05
2023-01-23T13:12:22.574Z,14.90
2023-01-23T13:15:14.673Z,14.52
2023-01-23T13:17:51.294Z,13.80
2023-01-23T13:21:12.129Z,13.18
2023-01-23T13:23:39.475Z,15.82
2023-01-23T13:26:23.368Z,14.48
2023-01-23T13:29:02.346Z,15.25
2023-01-23T13:31:50.651Z,14.68
2023-01-23T13:34:17.361Z,15.88
2023-01-23T13:36:49.851Z,14.32
2023-01-23T13:39:16.523Z,13.48
2023-01-23T13:42:14.933Z,15.15
2023-01-23T13:45:16.465Z,13.55
2023-01-23T14:22:44.613Z,16.63
2023-01-23T14:25:17.388Z,18.13
2023-01-23T14:27:53.426Z,17.20
2023-01-23T14:30:27.094Z,15.90
2023-01-23T14:32:55.430Z,15.52
2023-01-23T14:35:30.995Z,14.07
2023-01-23T14:38:01.298Z,14.45
2023-01-23T14:40:31.873Z,15.10
2023-01-23T14:43:10.075Z,16.13
2023-01-23T14:45:37.454Z,16.25
2023-01-23T14:48:08.097Z,14.85
2023-01-23T14:50:35.258Z,16.27
2023-01-23T14:53:05.484Z,16.88
2023-01-23T14:55:37.245Z,18.90
2023-01-23T14:58:05.131Z,20.02
2023-01-23T15:00:33.847Z,19.50
2023-01-23T15:03:01.196Z,18.25
2023-01-23T15:05:28.459Z,17.80
2023-01-23T15:08:03.320Z,18.75
2023-01-23T15:10:34.944Z,15.88
2023-01-23T15:13:05.880Z,17.83
2023-01-23T15:15:34.654Z,16.08
2023-01-23T15:18:03.841Z,15.70
2023-01-23T15:20:40.609Z,15.68
2023-01-23T15:23:24.290Z,14.30
2023-01-23T15:26:26.650Z,14.20
2023-01-23T15:29:26.212Z,14.85
2023-01-23T15:31:55.259Z,15.05
2023-01-23T15:34:26.492Z,15.77
2023-01-23T15:37:06.228Z,15.77
2023-01-23T15:39:42.373Z,16.85
2023-01-23T15:42:11.922Z,17.55
2023-01-23T15:44:40.163Z,17.77
2023-01-23T15:47:07.105Z,17.08
2023-01-23T15:49:36.576Z,20.48
2023-01-23T15:52:16.284Z,20.63
2023-01-23T15:54:44.084Z,18.95
2023-01-23T15:57:14.133Z,17.65
2023-01-23T15:59:41.497Z,17.13
2023-01-23T16:02:29.737Z,17.55
2023-01-23T16:04:57.700Z,15.77
2023-01-23T16:07:30.122Z,16.42
2023-01-23T16:09:58.057Z,17.17
2023-01-23T16:12:28.923Z,15.93
2023-01-23T16:14:57.683Z,15.85
2023-01-23T16:17:24.316Z,15.60
2023-01-23T16:19:51.200Z,15.68
2023-01-23T16:22:26.266Z,15.25
2023-01-23T16:24:53.862Z,15.27
2023-01-23T16:27:27.156Z,16.13
2023-01-23T16:29:55.086Z,15.55
2023-01-23T16:32:21.854Z,17.08
2023-01-23T16:34:49.232Z,19.83
2023-01-23T16:37:17.777Z,16.25
2023-01-23T16:39:47.650Z,17.50
2023-01-23T16:42:18.886Z,15.52
2023-01-23T16:44:46.100Z,14.73
2023-01-23T16:47:12.698Z,15.75
2023-01-23T16:49:51.420Z,15.25
2023-01-23T16:52:22.099Z,14.95
2023-01-23T16:54:52.485Z,14.65
2023-01-23T16:57:21.096Z,15.35
2023-01-23T16:59:50.175Z,15.13
2023-01-23T17:02:21.851Z,15.88
2023-01-23T17:04:49.378Z,15.32
2023-01-23T17:07:18.375Z,14.23
2023-01-23T17:09:47.671Z,15.55
2023-01-23T17:12:25.210Z,14.25
2023-01-23T17:14:52.903Z,15.70
2023-01-23T17:17:29.258Z,15.32
2023-01-23T17:19:57.820Z,17.42
2023-01-23T17:22:32.965Z,16.95
2023-01-23T17:25:00.175Z,16.77
2023-01-23T17:27:26.872Z,14.95
2023-01-23T17:29:54.081Z,16.88
2023-01-23T17:32:31.309Z,17.40
2023-01-23T17:35:02.976Z,16.47
2023-01-23T17:37:30.675Z,17.50
2023-01-23T17:39:57.842Z,17.50
2023-01-23T17:42:24.424Z,17.73
2023-01-23T17:44:51.290Z,18.30
2023-01-23T17:47:18.858Z,16.85
2023-01-23T17:49:51.862Z,16.77
2023-01-23T17:52:21.554Z,17.00
2023-01-23T17:54:49.385Z,16.08
2023-01-23T17:57:16.636Z,16.67
2023-01-23T17:59:43.254Z,16.77
2023-01-23T18:02:23.980Z,17.48
2023-01-23T18:04:51.052Z,17.52
2023-01-23T18:07:17.668Z,17.33
2023-01-23T18:09:44.646Z,18.10
2023-01-23T18:12:29.340Z,18.38
2023-01-23T18:15:05.935Z,17.25
2023-01-23T18:18:00.282Z,17.27
2023-01-23T18:20:28.796Z,17.55
2023-01-23T18:22:56.660Z,16.95
2023-01-23T18:25:26.455Z,17.67
2023-01-23T18:27:55.240Z,16.88
2023-01-23T18:30:38.998Z,19.33
2023-01-23T18:33:27.121Z,17.73
2023-01-23T18:36:19.458Z,19.27
2023-01-23T18:38:58.159Z,17.67
2023-01-23T18:41:27.761Z,18.88
2023-01-23T18:44:08.007Z,18.92
2023-01-23T18:46:35.413Z,17.40
2023-01-23T18:49:02.338Z,17.67
2023-01-23T18:51:42.556Z,18.42
2023-01-23T18:54:28.510Z,19.83
2023-01-23T18:56:57.935Z,17.55
2023-01-23T19:02:08.518Z,17.33
2023-01-23T19:04:46.762Z,17.08
2023-01-23T19:07:18.478Z,17.65
2023-01-23T19:09:47.343Z,18.38
2023-01-23T19:13:10.883Z,18.60
2023-01-23T19:15:40.694Z,17.63
2023-01-23T19:18:40.312Z,23.23
2023-01-23T19:21:10.552Z,19.92
2023-01-23T19:26:10.219Z,18.65
2023-01-23T19:28:38.556Z,19.15
2023-01-23T19:31:09.942Z,16.83
2023-01-23T19:33:36.609Z,16.67
2023-01-23T19:36:04.932Z,17.25
2023-01-23T19:38:31.491Z,17.45
2023-01-23T19:40:58.412Z,15.15
2023-01-23T19:43:25.268Z,16.42
2023-01-23T19:45:53.114Z,18.02
2023-01-23T19:48:19.690Z,16.42
2023-01-23T19:50:47.892Z,16.58
2023-01-23T19:53:14.657Z,16.52
2023-01-23T19:55:42.020Z,17.30
2023-01-23T19:58:09.054Z,15.25
2023-01-23T20:00:36.484Z,15.27
2023-01-23T20:03:04.929Z,18.17
2023-01-23T20:05:32.326Z,18.20
2023-01-23T20:07:59.118Z,17.33
2023-01-23T20:10:26.385Z,16.92
2023-01-23T20:12:54.254Z,16.38
2023-01-23T20:15:24.617Z,14.82
2023-01-23T20:17:52.210Z,15.85
2023-01-23T20:20:20.145Z,16.63
2023-01-23T20:22:47.321Z,16.02
2023-01-23T20:25:16.690Z,16.77
2023-01-23T20:27:44.187Z,15.57
2023-01-23T20:30:17.589Z,15.27
2023-01-23T20:32:44.409Z,14.38
2023-01-23T20:35:12.103Z,14.88
2023-01-23T20:37:39.034Z,15.57
2023-01-23T20:40:08.770Z,16.55
2023-01-23T20:42:36.123Z,17.15
2023-01-23T20:45:03.492Z,17.65
2023-01-23T20:47:30.534Z,16.25
2023-01-23T20:49:57.135Z,15.32
2023-01-23T20:52:43.175Z,16.33
2023-01-23T20:55:10.323Z,15.82
2023-01-23T20:57:55.222Z,15.98
2023-01-23T21:00:22.569Z,16.50
2023-01-23T21:02:49.333Z,15.52
2023-01-23T21:05:16.694Z,15.00
2023-01-23T21:07:43.435Z,15.90
2023-01-23T21:10:10.554Z,16.30
2023-01-23T21:12:37.805Z,16.10
2023-01-23T21:15:04.936Z,15.57
2023-01-23T21:17:31.911Z,16.23
2023-01-23T21:19:58.497Z,16.52
2023-01-23T21:22:25.716Z,18.08
2023-01-23T21:24:52.328Z,17.08
2023-01-23T21:27:21.272Z,16.42
